Time;durP1;ratioP1;P1;durP2;ratioP2;P2;SDS_P1;SDS_P2;PMS_P1;PMS_P2;Temp;Humidity;BMP_temperature;BMP_pressure;BME280_temperature;BME280_humidity;BME280_pressure;Samples;Min_cycle;Max_cycle;Signal;HPM_P1;HPM_P2
2021/12/16 00:31:44;;;;;;;17.98;12.07;;;;;;;2.07;80.36;101571.34;1729114;82;21148;-74
2021/12/16 00:34:04;;;;;;;21.02;15.00;;;;;;;2.08;80.55;101569.03;1726425;82;20950;-73
2021/12/16 00:36:37;;;;;;;19.32;14.43;;;;;;;2.13;80.64;101578.22;1731777;82;20937;-74
2021/12/16 00:39:08;;;;;;;21.75;15.08;;;;;;;2.17;80.76;101569.77;1729152;82;21049;-73
2021/12/16 00:41:37;;;;;;;14.95;10.93;;;;;;;2.24;80.76;101566.77;1727744;82;21066;-73
2021/12/16 00:44:14;;;;;;;22.87;16.27;;;;;;;2.26;80.66;101573.17;1731160;82;21093;-74
2021/12/16 00:49:30;;;;;;;21.90;16.32;;;;;;;2.24;80.71;101568.09;1723928;82;21065;-74
2021/12/16 00:54:33;;;;;;;22.73;15.80;;;;;;;2.31;80.77;101559.78;1727008;82;21093;-74
2021/12/16 00:57:07;;;;;;;22.40;15.75;;;;;;;2.31;80.68;101561.61;1726660;82;21136;-75
2021/12/16 00:59:34;;;;;;;21.80;15.00;;;;;;;2.30;80.63;101552.88;1733345;82;21489;-74
2021/12/16 01:02:15;;;;;;;22.20;15.03;;;;;;;2.30;80.60;101550.72;1742788;81;21049;-75
2021/12/16 01:33:39;;;;;;;21.75;15.15;;;;;;;2.33;80.58;101531.41;1696683;84;21053;-75
2021/12/16 01:34:58;;;;;;;22.93;14.93;;;;;;;2.39;80.41;101526.44;1730735;82;21068;-74
2021/12/16 01:48:16;;;;;;;23.40;15.28;;;;;;;2.49;80.19;101512.48;1758847;81;21034;-74
2021/12/16 01:50:31;;;;;;;23.42;15.58;;;;;;;2.51;80.11;101513.14;1703151;83;25337;-74
2021/12/16 01:55:40;;;;;;;26.07;16.75;;;;;;;2.57;80.08;101511.11;1724453;82;21098;-75
2021/12/16 01:58:22;;;;;;;23.75;15.78;;;;;;;2.61;80.00;101511.56;1757968;81;21067;-74
2021/12/16 02:01:15;;;;;;;25.23;16.17;;;;;;;2.63;79.91;101515.63;1757419;81;20931;-75
2021/12/16 02:03:45;;;;;;;24.05;15.20;;;;;;;2.65;79.87;101514.15;1728007;81;21208;-75
2021/12/16 02:08:49;;;;;;;25.02;15.28;;;;;;;2.64;79.62;101521.25;1730711;83;21015;-75
2021/12/16 02:11:43;;;;;;;24.15;15.48;;;;;;;2.66;79.51;101525.01;1730996;81;21129;-74
2021/12/16 02:27:53;;;;;;;24.25;14.93;;;;;;;2.65;79.11;101526.83;1701544;84;20979;-74
2021/12/16 02:35:58;;;;;;;22.27;13.93;;;;;;;2.67;78.99;101520.08;1701735;83;21139;-74
2021/12/16 02:38:17;;;;;;;23.95;14.18;;;;;;;2.59;78.86;101503.81;1702280;83;20999;-74
2021/12/16 02:40:46;;;;;;;26.15;14.73;;;;;;;2.50;78.87;101499.14;1709600;83;21034;-74
2021/12/16 02:48:35;;;;;;;23.18;14.75;;;;;;;2.45;79.13;101481.71;1701590;83;21003;-74
2021/12/16 02:51:21;;;;;;;21.85;13.78;;;;;;;2.45;79.23;101472.48;1701970;83;21014;-74
2021/12/16 02:53:54;;;;;;;23.18;14.10;;;;;;;2.43;79.16;101463.92;1701834;84;21089;-75
2021/12/16 02:56:21;;;;;;;26.73;14.85;;;;;;;2.41;79.28;101454.08;1701616;83;21733;-73
2021/12/16 02:58:53;;;;;;;23.85;14.63;;;;;;;2.43;79.28;101455.20;1701363;84;21572;-74
2021/12/16 03:01:28;;;;;;;26.33;16.27;;;;;;;2.40;79.34;101463.47;1701866;83;21520;-74
2021/12/16 03:03:54;;;;;;;23.98;14.28;;;;;;;2.34;79.39;101458.44;1701393;84;21457;-74
2021/12/16 03:06:21;;;;;;;26.77;15.35;;;;;;;2.33;79.49;101459.41;1701783;83;21014;-74
2021/12/16 03:08:48;;;;;;;28.98;16.35;;;;;;;2.30;79.58;101457.14;1701319;84;21125;-74
2021/12/16 03:11:33;;;;;;;27.87;16.70;;;;;;;2.29;79.67;101455.51;1701554;83;21062;-74
2021/12/16 03:14:07;;;;;;;26.27;15.08;;;;;;;2.27;79.75;101457.49;1701240;83;21501;-74
2021/12/16 03:16:28;;;;;;;27.30;15.15;;;;;;;2.26;79.82;101461.14;1702412;83;21026;-73
2021/12/16 03:19:11;;;;;;;27.10;15.95;;;;;;;2.27;79.90;101457.49;1701020;83;21430;-73
2021/12/16 03:21:30;;;;;;;27.48;16.02;;;;;;;2.28;79.98;101457.83;1699026;84;21154;-74
2021/12/16 03:24:11;;;;;;;30.37;15.90;;;;;;;2.25;80.07;101452.92;1701342;84;20983;-73
2021/12/16 03:37:17;;;;;;;27.00;15.90;;;;;;;2.27;80.57;101455.70;1730488;83;21066;-74
2021/12/16 03:39:54;;;;;;;30.57;17.50;;;;;;;2.27;80.58;101458.34;1710716;83;21042;-74
2021/12/16 03:42:30;;;;;;;29.32;17.42;;;;;;;2.27;80.61;101458.81;1702232;83;20975;-74
2021/12/16 03:45:05;;;;;;;31.55;17.70;;;;;;;2.23;80.62;101453.59;1701606;84;21054;-74
2021/12/16 03:47:39;;;;;;;29.32;16.40;;;;;;;2.26;80.73;101465.09;1701218;83;21551;-74
2021/12/16 03:50:11;;;;;;;31.50;17.70;;;;;;;2.31;80.77;101467.52;1701059;84;21054;-75
2021/12/16 03:52:38;;;;;;;30.25;16.27;;;;;;;2.29;80.67;101451.55;1701819;83;21062;-74
2021/12/16 03:55:06;;;;;;;29.85;16.97;;;;;;;2.25;80.71;101449.78;1701472;84;21023;-74
2021/12/16 03:57:33;;;;;;;30.70;16.62;;;;;;;2.24;80.79;101453.42;1701569;84;20932;-75
2021/12/16 04:00:00;;;;;;;31.40;17.45;;;;;;;2.27;80.84;101452.22;1701309;83;21506;-75
2021/12/16 04:02:45;;;;;;;30.97;17.67;;;;;;;2.29;80.91;101444.97;1701284;83;21038;-75
2021/12/16 04:05:14;;;;;;;36.05;18.65;;;;;;;2.29;80.82;101445.78;1701590;83;21003;-74
2021/12/16 04:07:42;;;;;;;34.10;18.65;;;;;;;2.27;80.85;101443.00;1701359;83;21474;-74
2021/12/16 04:10:33;;;;;;;33.67;17.12;;;;;;;2.26;80.89;101440.86;1701235;83;21569;-74
2021/12/16 04:13:00;;;;;;;36.83;19.23;;;;;;;2.27;80.96;101433.77;1728059;83;21530;-74
2021/12/16 04:15:27;;;;;;;33.18;18.48;;;;;;;2.24;80.93;101439.43;1719566;83;21082;-74
2021/12/16 04:17:55;;;;;;;32.55;16.90;;;;;;;2.23;81.01;101420.64;1737063;82;21528;-74
2021/12/16 04:20:22;;;;;;;34.45;18.02;;;;;;;2.18;81.06;101433.05;1737428;82;21040;-74
2021/12/16 04:22:51;;;;;;;31.85;17.05;;;;;;;2.17;81.12;101439.80;1737274;82;21076;-74
2021/12/16 04:25:23;;;;;;;35.48;17.55;;;;;;;2.17;81.21;101436.66;1737222;82;21093;-73
2021/12/16 04:27:54;;;;;;;35.65;19.52;;;;;;;2.16;81.23;101426.31;1736994;82;21575;-73
2021/12/16 04:30:21;;;;;;;33.70;19.10;;;;;;;2.11;81.29;101426.36;1708012;82;21117;-74
2021/12/16 04:32:50;;;;;;;36.00;18.32;;;;;;;2.10;81.40;101428.66;1737140;82;21004;-74
2021/12/16 04:35:17;;;;;;;35.50;19.60;;;;;;;2.09;81.54;101427.03;1737245;82;21115;-74
2021/12/16 04:37:48;;;;;;;36.17;19.23;;;;;;;2.10;81.55;101423.39;1730997;82;21474;-74
2021/12/16 04:40:16;;;;;;;35.52;18.50;;;;;;;2.13;81.55;101421.41;1718557;82;20978;-74
2021/12/16 04:42:44;;;;;;;35.55;17.75;;;;;;;2.13;81.60;101413.50;1720628;83;21435;-74
2021/12/16 04:45:16;;;;;;;39.18;20.65;;;;;;;2.14;81.60;101409.86;1720438;83;21107;-74
2021/12/16 04:47:44;;;;;;;38.88;18.32;;;;;;;2.15;81.63;101401.78;1717571;83;21051;-73
2021/12/16 04:50:11;;;;;;;35.48;18.73;;;;;;;2.21;81.69;101406.34;1720305;83;21161;-74
2021/12/16 04:52:39;;;;;;;37.73;19.62;;;;;;;2.22;81.64;101405.84;1720168;83;21050;-74
2021/12/16 04:55:08;;;;;;;31.95;17.30;;;;;;;2.23;81.65;101402.19;1720360;83;21193;-74
2021/12/16 04:57:35;;;;;;;31.93;17.77;;;;;;;2.25;81.70;101407.61;1720369;83;20959;-75
2021/12/16 05:00:06;;;;;;;36.33;19.20;;;;;;;2.30;81.72;101408.37;1720568;83;21102;-74
2021/12/16 05:02:34;;;;;;;34.88;18.23;;;;;;;2.37;81.74;101405.35;1720664;83;21109;-75
2021/12/16 05:05:09;;;;;;;30.57;17.20;;;;;;;2.44;81.73;101395.70;1720458;83;20988;-75
2021/12/16 05:07:36;;;;;;;32.65;18.60;;;;;;;2.52;81.59;101407.97;1720180;83;21589;-75
2021/12/16 05:10:07;;;;;;;35.08;18.32;;;;;;;2.48;81.38;101404.88;1716238;83;21107;-75
2021/12/16 05:12:40;;;;;;;34.95;17.85;;;;;;;2.44;81.33;101403.62;1720525;83;20951;-74
2021/12/16 05:15:11;;;;;;;37.13;18.77;;;;;;;2.44;81.29;101400.16;1735135;82;21280;-74
2021/12/16 05:17:49;;;;;;;32.60;16.87;;;;;;;2.40;81.21;101397.05;1737598;82;21051;-74
2021/12/16 05:20:15;;;;;;;35.55;18.62;;;;;;;2.40;81.23;101401.00;1706582;82;21556;-74
2021/12/16 05:25:44;;;;;;;35.68;19.65;;;;;;;2.33;81.10;101404.87;1758914;81;21102;-74
2021/12/16 05:28:01;;;;;;;33.13;18.57;;;;;;;2.27;81.13;101395.55;1754572;81;20987;-74
2021/12/16 05:30:28;;;;;;;31.20;16.77;;;;;;;2.24;81.21;101394.11;1728528;83;21077;-74
2021/12/16 05:32:55;;;;;;;36.80;19.85;;;;;;;2.28;81.31;101406.43;1728505;83;20995;-74
2021/12/16 05:35:22;;;;;;;36.17;19.77;;;;;;;2.31;81.33;101395.53;1728476;83;20986;-74
2021/12/16 05:37:49;;;;;;;33.70;18.30;;;;;;;2.34;81.28;101398.61;1713688;81;21019;-74
2021/12/16 05:40:25;;;;;;;33.23;17.37;;;;;;;2.39;81.25;101402.02;1726321;81;21154;-74
2021/12/16 05:42:57;;;;;;;34.60;18.17;;;;;;;2.38;81.20;101403.02;1698534;84;21416;-74
2021/12/16 05:45:24;;;;;;;34.03;18.62;;;;;;;2.39;81.15;101402.52;1680901;84;21620;-74
2021/12/16 05:47:52;;;;;;;32.45;18.35;;;;;;;2.38;81.15;101406.16;1678231;85;21599;-74
2021/12/16 05:50:19;;;;;;;37.28;17.85;;;;;;;2.39;81.19;101413.88;1708036;84;21028;-74
2021/12/16 05:52:46;;;;;;;35.30;18.95;;;;;;;2.40;81.07;101418.64;1709282;82;22207;-73
2021/12/16 05:55:13;;;;;;;35.20;18.50;;;;;;;2.39;81.06;101413.88;1707890;84;20978;-74
2021/12/16 05:57:48;;;;;;;34.92;18.80;;;;;;;2.41;81.09;101417.16;1705626;84;21061;-74
2021/12/16 06:00:23;;;;;;;35.60;17.90;;;;;;;2.43;81.08;101416.97;1681319;84;21065;-74
2021/12/16 06:02:50;;;;;;;37.90;19.20;;;;;;;2.43;81.00;101412.50;1707331;83;21006;-74
2021/12/16 06:05:17;;;;;;;33.80;18.77;;;;;;;2.39;80.94;101415.20;1707999;84;22088;-74
2021/12/16 06:07:44;;;;;;;33.67;17.98;;;;;;;2.39;80.98;101413.88;1707702;84;20987;-74
2021/12/16 06:10:24;;;;;;;38.95;19.90;;;;;;;2.39;81.00;101412.56;1707827;84;21065;-74
2021/12/16 06:12:40;;;;;;;38.48;19.80;;;;;;;2.39;80.98;101407.28;1716340;82;21452;-74
2021/12/16 06:15:22;;;;;;;32.33;17.35;;;;;;;2.41;80.99;101411.89;1737436;82;21508;-74
2021/12/16 06:28:33;;;;;;;34.05;17.90;;;;;;;2.47;80.83;101382.16;1737419;82;21004;-74
2021/12/16 06:30:59;;;;;;;35.03;17.65;;;;;;;2.52;80.90;101371.86;1737303;82;21132;-74
2021/12/16 06:33:26;;;;;;;34.75;18.50;;;;;;;2.59;80.90;101370.62;1737245;82;21108;-74
2021/12/16 06:35:54;;;;;;;36.88;19.07;;;;;;;2.65;80.82;101369.08;1737430;82;20993;-73
2021/12/16 06:38:21;;;;;;;36.73;19.62;;;;;;;2.64;80.77;101368.77;1737185;82;21080;-74
2021/12/16 06:40:54;;;;;;;37.98;18.40;;;;;;;2.70;80.71;101370.64;1733567;82;21028;-74
2021/12/16 06:43:36;;;;;;;34.95;18.85;;;;;;;2.72;80.58;101364.69;1660014;82;21507;-74
2021/12/16 06:46:06;;;;;;;36.58;19.37;;;;;;;2.75;80.63;101369.09;1737486;82;21034;-74
2021/12/16 06:48:35;;;;;;;34.85;18.23;;;;;;;2.82;80.61;101360.75;1758368;81;21489;-73
2021/12/16 06:51:07;;;;;;;38.38;19.60;;;;;;;2.90;80.46;101362.48;1758643;81;21270;-73
2021/12/16 06:53:36;;;;;;;38.20;20.52;;;;;;;2.93;80.28;101363.91;1721952;81;20985;-73
2021/12/16 06:56:14;;;;;;;39.85;19.23;;;;;;;2.99;80.29;101354.73;1700586;84;21302;-76
2021/12/16 06:59:05;;;;;;;36.42;19.40;;;;;;;3.08;80.06;101363.88;1734902;82;21474;-74
2021/12/16 07:01:13;;;;;;;;;;;;;;;3.06;79.62;101352.20;1730098;82;21059;-74
2021/12/16 07:03:47;;;;;;;38.90;20.27;;;;;;;3.08;79.67;101351.48;1736900;82;20197;-74
2021/12/16 07:06:08;;;;;;;35.08;17.67;;;;;;;3.13;79.47;101346.98;1736733;82;21037;-74
2021/12/16 07:08:35;;;;;;;38.90;19.02;;;;;;;3.19;78.98;101352.80;1737275;82;21542;-74
2021/12/16 07:11:03;;;;;;;35.05;19.10;;;;;;;3.19;78.85;101352.80;1737074;82;21061;-74
2021/12/16 07:13:37;;;;;;;35.52;18.45;;;;;;;3.20;78.48;101352.63;1737168;82;20994;-74
2021/12/16 07:16:00;;;;;;;36.77;19.40;;;;;;;3.22;78.44;101343.19;1758120;81;20975;-74
2021/12/16 07:18:27;;;;;;;34.67;18.75;;;;;;;3.22;78.16;101336.08;1758654;81;21565;-74
2021/12/16 07:20:54;;;;;;;34.90;19.12;;;;;;;3.20;77.93;101337.30;1728411;81;21174;-74
2021/12/16 07:23:20;;;;;;;32.25;17.62;;;;;;;3.19;77.92;101340.45;1707925;84;20999;-74
2021/12/16 07:25:47;;;;;;;32.83;17.87;;;;;;;3.25;77.91;101338.85;1731044;83;20970;-75
2021/12/16 07:28:15;;;;;;;33.25;18.30;;;;;;;3.29;77.74;101338.78;1744397;81;21077;-74
2021/12/16 07:30:44;;;;;;;33.45;17.48;;;;;;;3.25;77.31;101337.02;1729199;81;21007;-75
2021/12/16 07:33:12;;;;;;;30.32;17.05;;;;;;;3.19;77.19;101322.45;1719007;82;21426;-75
2021/12/16 07:35:40;;;;;;;35.92;19.23;;;;;;;3.13;77.13;101316.62;1719972;82;21034;-75
2021/12/16 07:38:07;;;;;;;31.60;17.07;;;;;;;3.11;77.21;101321.27;1720105;82;21139;-74
2021/12/16 07:40:35;;;;;;;31.05;16.97;;;;;;;3.09;77.19;101320.12;1723723;82;21583;-74
2021/12/16 07:45:32;;;;;;;30.43;17.67;;;;;;;3.05;77.07;101307.80;1721084;83;22016;-74
2021/12/16 07:47:59;;;;;;;28.17;16.80;;;;;;;3.03;77.11;101309.02;1723066;82;21086;-74
2021/12/16 07:50:27;;;;;;;28.90;16.62;;;;;;;3.00;77.01;101307.57;1725759;82;21066;-74
2021/12/16 07:52:53;;;;;;;34.05;17.70;;;;;;;3.00;77.08;101302.80;1712861;82;21023;-73
2021/12/16 07:55:21;;;;;;;34.90;17.45;;;;;;;3.01;77.21;101301.78;1724131;81;21042;-75
2021/12/16 07:57:48;;;;;;;32.73;17.52;;;;;;;3.05;77.33;101305.17;1741050;81;21518;-74
2021/12/16 08:00:21;;;;;;;31.93;17.17;;;;;;;3.12;77.30;101299.14;1745656;80;21295;-74
2021/12/16 08:02:48;;;;;;;32.08;17.20;;;;;;;3.20;77.22;101300.34;1748182;81;21015;-74
2021/12/16 08:05:15;;;;;;;29.82;15.60;;;;;;;3.25;77.03;101305.85;1745220;81;21118;-75
2021/12/16 08:07:42;;;;;;;32.67;17.77;;;;;;;3.29;76.86;101304.45;1748411;81;20959;-75
2021/12/16 08:10:15;;;;;;;33.88;18.02;;;;;;;3.27;76.74;101292.78;1747731;80;49040;-75
2021/12/16 08:12:43;;;;;;;32.42;18.37;;;;;;;3.31;76.77;101296.36;1748210;81;21078;-73
2021/12/16 08:15:10;;;;;;;31.15;17.45;;;;;;;3.33;76.73;101302.28;1747336;81;21095;-73
2021/12/16 08:17:39;;;;;;;29.70;17.45;;;;;;;3.31;76.61;101300.32;1748983;81;21070;-74
2021/12/16 08:20:07;;;;;;;32.53;17.10;;;;;;;3.32;76.71;101290.06;1749023;81;21048;-74
2021/12/16 08:22:34;;;;;;;29.63;16.57;;;;;;;3.36;76.73;101285.55;1720952;82;20951;-74
2021/12/16 08:25:01;;;;;;;29.05;16.87;;;;;;;3.40;76.73;101285.47;1721178;82;21461;-74
2021/12/16 08:27:27;;;;;;;29.72;16.80;;;;;;;3.47;76.65;101289.48;1721572;82;21208;-74
2021/12/16 08:29:54;;;;;;;29.15;16.48;;;;;;;3.47;76.38;101282.38;1746212;81;21110;-74
2021/12/16 08:32:23;;;;;;;28.73;16.17;;;;;;;3.42;76.31;101283.47;1742692;81;20990;-74
2021/12/16 08:34:50;;;;;;;27.77;15.65;;;;;;;3.40;76.32;101285.98;1748585;81;21023;-74
2021/12/16 08:37:17;;;;;;;31.73;17.00;;;;;;;3.36;76.28;101286.06;1749496;81;21045;-73
2021/12/16 08:39:45;;;;;;;29.35;16.75;;;;;;;3.32;76.37;101285.59;1748372;81;21051;-74
2021/12/16 08:42:11;;;;;;;29.37;16.77;;;;;;;3.35;76.46;101282.58;1747050;80;21047;-74
2021/12/16 08:44:39;;;;;;;26.62;16.40;;;;;;;3.39;76.49;101275.09;1740733;80;21034;-75
2021/12/16 08:47:10;;;;;;;30.40;16.65;;;;;;;3.38;76.42;101262.39;1752904;81;21999;-75
2021/12/16 08:49:37;;;;;;;26.52;15.58;;;;;;;3.38;76.52;101255.79;1747407;81;20934;-75
2021/12/16 08:52:13;;;;;;;25.50;15.45;;;;;;;3.44;76.61;101255.53;1737490;81;21003;-76
2021/12/16 08:54:40;;;;;;;27.75;16.25;;;;;;;3.47;76.58;101258.60;1734787;81;21011;-75
2021/12/16 08:57:07;;;;;;;26.40;14.87;;;;;;;3.51;76.53;101253.75;1721457;81;21671;-74
2021/12/16 08:59:34;;;;;;;28.32;17.23;;;;;;;3.51;76.48;101245.31;1758630;81;21556;-74
2021/12/16 09:02:02;;;;;;;32.20;16.60;;;;;;;3.51;76.51;101243.19;1703686;81;21071;-75
2021/12/16 09:04:29;;;;;;;27.20;16.15;;;;;;;3.53;76.54;101236.70;1726391;82;20994;-74
2021/12/16 09:07:00;;;;;;;30.08;17.07;;;;;;;3.55;76.62;101237.81;1737548;82;21092;-75
2021/12/16 09:09:32;;;;;;;30.60;18.10;;;;;;;3.60;76.69;101233.30;1737361;82;21097;-75
2021/12/16 09:12:08;;;;;;;30.35;17.35;;;;;;;3.63;76.50;101228.95;1734795;82;21201;-74
2021/12/16 09:14:32;;;;;;;26.93;16.07;;;;;;;3.63;76.59;101216.55;1727590;82;21010;-75
2021/12/16 09:16:58;;;;;;;30.97;17.25;;;;;;;3.69;76.65;101211.00;1757083;81;21062;-74
2021/12/16 09:19:25;;;;;;;29.80;17.10;;;;;;;3.71;76.49;101210.28;1749460;82;20980;-74
2021/12/16 09:21:52;;;;;;;29.98;17.67;;;;;;;3.69;76.35;101201.75;1717604;83;21037;-74
2021/12/16 09:24:18;;;;;;;29.80;18.20;;;;;;;3.67;76.38;101198.48;1700797;84;21094;-74
2021/12/16 09:26:45;;;;;;;29.40;17.70;;;;;;;3.69;76.47;101200.43;1700617;83;21011;-75
2021/12/16 09:29:12;;;;;;;33.08;18.92;;;;;;;3.72;76.47;101194.25;1717923;83;21023;-74
2021/12/16 09:31:39;;;;;;;29.63;17.45;;;;;;;3.73;76.46;101185.81;1721163;83;21082;-75
2021/12/16 09:34:08;;;;;;;28.83;17.20;;;;;;;3.82;76.58;101182.48;1730332;81;21522;-75
2021/12/16 09:36:39;;;;;;;28.57;16.73;;;;;;;3.88;76.41;101178.57;1729404;83;22007;-75
2021/12/16 09:39:12;;;;;;;28.15;17.27;;;;;;;3.88;76.23;101181.70;1730229;83;20979;-75
2021/12/16 09:41:41;;;;;;;31.80;18.10;;;;;;;3.86;76.02;101182.41;1729927;83;21086;-74
2021/12/16 09:44:08;;;;;;;31.62;18.37;;;;;;;3.78;76.08;101181.25;1728100;83;21031;-75
2021/12/16 09:46:35;;;;;;;26.12;16.55;;;;;;;3.74;76.13;101167.62;1729665;81;21063;-75
2021/12/16 09:49:02;;;;;;;28.20;17.07;;;;;;;3.75;76.22;101165.27;1732243;81;21143;-75
2021/12/16 09:51:32;;;;;;;31.65;19.55;;;;;;;3.76;76.28;101164.28;1729153;83;21026;-74
2021/12/16 09:54:03;;;;;;;30.00;18.42;;;;;;;3.74;76.35;101158.37;1720374;82;21169;-75
2021/12/16 09:56:31;;;;;;;30.95;19.10;;;;;;;3.74;76.41;101151.25;1719329;83;21067;-76
2021/12/16 09:58:59;;;;;;;33.42;19.40;;;;;;;3.75;76.50;101149.42;1716767;83;21106;-74
2021/12/16 10:01:28;;;;;;;29.23;18.35;;;;;;;3.75;76.54;101147.62;1717352;83;21138;-75
2021/12/16 10:04:01;;;;;;;29.50;18.92;;;;;;;3.76;76.66;101142.63;1721587;83;21058;-75
2021/12/16 10:06:27;;;;;;;31.15;19.12;;;;;;;3.78;76.76;101141.10;1713333;83;21081;-74
2021/12/16 10:08:55;;;;;;;31.10;18.85;;;;;;;3.78;76.82;101135.00;1715972;83;21054;-75
2021/12/16 10:11:22;;;;;;;32.30;18.77;;;;;;;3.76;76.84;101129.94;1719215;83;21070;-75
2021/12/16 10:19:12;;;;;;;29.10;17.82;;;;;;;3.83;77.12;101108.81;1716857;83;21514;-76
2021/12/16 10:21:41;;;;;;;28.30;17.35;;;;;;;3.85;77.04;101099.69;1718159;83;21120;-75
2021/12/16 10:24:31;;;;;;;28.38;18.65;;;;;;;3.85;77.09;101101.48;1718843;83;21030;-76
2021/12/16 10:27:17;;;;;;;27.70;18.27;;;;;;;3.85;77.14;101103.65;1716472;83;21142;-75
2021/12/16 10:29:49;;;;;;;28.83;17.60;;;;;;;3.87;77.23;101095.00;1746743;81;21644;-76
2021/12/16 10:32:42;;;;;;;27.10;18.10;;;;;;;3.93;77.21;101096.84;1725658;82;21058;-75
2021/12/16 10:35:28;;;;;;;32.28;20.27;;;;;;;3.91;77.23;101092.25;1729470;82;21089;-74
2021/12/16 10:37:59;;;;;;;30.97;18.55;;;;;;;3.93;77.34;101094.72;1733062;82;21085;-74
2021/12/16 10:40:48;;;;;;;28.32;18.55;;;;;;;3.94;77.41;101090.54;1738727;81;22390;-75
2021/12/16 10:43:42;;;;;;;29.05;17.98;;;;;;;3.96;77.55;101087.71;1730122;81;21576;-72
2021/12/16 10:46:14;;;;;;;28.45;17.40;;;;;;;4.02;77.65;101086.11;1717613;82;21442;-72
2021/12/16 10:49:00;;;;;;;26.68;16.40;;;;;;;3.99;77.83;101080.19;1729771;81;21134;-70
2021/12/16 10:51:34;;;;;;;27.90;17.33;;;;;;;4.03;78.01;101066.06;1485988;81;10000795;-69
2021/12/16 10:54:09;;;;;;;27.45;16.93;;;;;;;4.11;78.13;101065.86;1728388;81;21055;-70
2021/12/16 10:56:41;;;;;;;26.48;17.00;;;;;;;4.18;78.15;101066.70;1727379;81;21088;-70
2021/12/16 10:59:20;;;;;;;24.45;15.18;;;;;;;4.26;78.15;101056.94;1722204;82;21571;-70
2021/12/16 11:02:04;;;;;;;26.55;16.77;;;;;;;4.35;78.13;101059.19;1724474;81;21116;-70
2021/12/16 11:04:48;;;;;;;26.97;17.42;;;;;;;4.39;77.83;101059.08;1730445;80;21101;-70
2021/12/16 11:07:31;;;;;;;27.70;18.05;;;;;;;4.39;77.78;101053.78;1725767;81;21063;-71
2021/12/16 11:10:25;;;;;;;24.05;16.57;;;;;;;4.40;77.73;101064.66;1727985;81;21617;-72
2021/12/16 11:13:07;;;;;;;27.00;17.12;;;;;;;4.38;77.69;101057.97;1730581;81;21155;-72
2021/12/16 11:15:42;;;;;;;26.48;17.25;;;;;;;4.42;77.71;101052.58;1732404;81;21221;-69
2021/12/16 11:18:20;;;;;;;28.38;17.50;;;;;;;4.41;77.78;101049.12;1704552;83;21087;-70
2021/12/16 11:21:01;;;;;;;27.95;17.77;;;;;;;4.40;77.82;101046.15;1715582;82;21084;-71
2021/12/16 11:23:37;;;;;;;30.77;17.55;;;;;;;4.38;77.83;101042.91;1725471;80;21144;-71
2021/12/16 11:26:11;;;;;;;28.85;18.40;;;;;;;4.39;77.93;101041.08;1729940;80;21213;-70
2021/12/16 11:28:41;;;;;;;28.67;18.40;;;;;;;4.38;77.98;101041.59;1728080;81;21098;-71
2021/12/16 11:31:13;;;;;;;28.00;17.62;;;;;;;4.41;78.11;101038.54;1721182;82;21710;-71
2021/12/16 11:33:49;;;;;;;27.00;18.60;;;;;;;4.40;78.06;101033.44;1752112;80;21619;-70
2021/12/16 11:36:32;;;;;;;25.35;16.70;;;;;;;4.38;78.12;101038.95;1757607;80;21541;-68
2021/12/16 11:39:14;;;;;;;;;;;;;;;4.37;78.27;101039.94;1747558;80;21647;-69
2021/12/16 11:41:43;;;;;;;26.35;16.45;;;;;;;4.36;78.34;101033.03;1719065;83;20847;-69
2021/12/16 11:44:24;;;;;;;27.95;17.75;;;;;;;4.36;78.44;101025.61;1747757;81;21024;-68
2021/12/16 11:47:10;;;;;;;27.05;17.52;;;;;;;4.37;78.46;101025.39;1751997;80;21098;-70
2021/12/16 11:49:48;;;;;;;28.57;17.15;;;;;;;4.42;78.55;101020.83;1705269;81;21110;-70
2021/12/16 11:52:25;;;;;;;28.75;18.32;;;;;;;4.48;78.57;101021.34;1693100;82;21045;-72
2021/12/16 11:54:59;;;;;;;27.77;18.52;;;;;;;4.51;78.54;101020.09;1738209;81;21842;-72
2021/12/16 11:57:47;;;;;;;26.00;16.75;;;;;;;4.51;78.58;101013.48;1758713;80;21069;-72
2021/12/16 12:00:22;;;;;;;28.75;18.80;;;;;;;4.50;78.68;101010.03;1727054;82;21037;-77
2021/12/16 12:02:55;;;;;;;26.80;17.67;;;;;;;4.49;78.74;101004.95;1749542;80;21604;-78
2021/12/16 12:05:42;;;;;;;29.20;19.92;;;;;;;4.45;78.88;101001.40;1751473;80;21148;-80
2021/12/16 12:08:30;;;;;;;27.42;17.73;;;;;;;4.45;79.04;100990.81;1713876;82;21126;-80
2021/12/16 12:11:17;;;;;;;27.60;17.95;;;;;;;4.48;79.17;100989.60;1756480;80;21045;-72
2021/12/16 12:13:49;;;;;;;25.97;17.65;;;;;;;4.48;79.23;100988.79;1714857;82;21204;-79
2021/12/16 12:16:22;;;;;;;25.80;17.85;;;;;;;4.50;79.39;100986.22;1721089;81;21132;-80
2021/12/16 12:18:53;;;;;;;28.12;19.32;;;;;;;4.51;79.43;100989.19;1722818;81;21053;-79
2021/12/16 12:21:54;;;;;;;26.95;17.32;;;;;;;4.52;79.44;100982.87;1720019;82;21094;-80
2021/12/16 12:24:36;;;;;;;25.92;16.90;;;;;;;4.57;79.54;100978.27;1715374;82;21668;-80
2021/12/16 12:27:12;;;;;;;28.60;18.55;;;;;;;4.62;79.55;100971.35;1711244;83;21088;-80
2021/12/16 12:29:44;;;;;;;26.12;17.70;;;;;;;4.64;79.52;100973.77;1747196;81;21039;-80
2021/12/16 12:32:16;;;;;;;26.80;17.35;;;;;;;4.60;79.58;100968.60;1741970;81;20986;-81
2021/12/16 12:34:47;;;;;;;26.90;18.10;;;;;;;4.61;79.68;100965.77;1749324;81;21257;-80
2021/12/16 12:37:18;;;;;;;21.82;14.58;;;;;;;4.63;79.77;100960.25;1761622;80;21085;-79
2021/12/16 12:39:53;;;;;;;29.90;19.02;;;;;;;4.64;79.79;100964.03;1767989;80;21625;-78
2021/12/16 12:42:23;;;;;;;27.02;18.00;;;;;;;4.66;79.84;100965.94;1715452;81;21002;-79
2021/12/16 12:44:49;;;;;;;25.35;16.37;;;;;;;4.68;79.89;100955.97;1755770;80;20995;-80
2021/12/16 12:47:20;;;;;;;28.90;19.10;;;;;;;4.72;79.90;100954.23;1756643;80;21530;-80
2021/12/16 12:49:47;;;;;;;28.25;19.20;;;;;;;4.73;79.91;100954.02;1750625;81;21050;-78
2021/12/16 12:52:18;;;;;;;26.12;16.93;;;;;;;4.76;79.88;100951.47;1738394;80;20995;-79
2021/12/16 12:55:13;;;;;;;29.82;18.55;;;;;;;4.77;79.89;100952.59;1736822;81;21114;-79
2021/12/16 12:57:42;;;;;;;27.45;17.95;;;;;;;4.77;79.88;100948.63;1719101;81;21123;-80
2021/12/16 13:00:23;;;;;;;28.40;19.23;;;;;;;4.79;79.90;100943.11;1757533;80;21738;-79
2021/12/16 13:03:01;;;;;;;29.85;19.27;;;;;;;4.74;79.92;100935.81;1708613;81;21384;-81
2021/12/16 13:05:27;;;;;;;29.72;19.25;;;;;;;4.73;79.99;100937.33;1691672;82;21575;-81
2021/12/16 13:08:00;;;;;;;29.77;19.20;;;;;;;4.69;80.13;100947.00;1734731;82;21583;-79
2021/12/16 13:10:46;;;;;;;30.60;20.32;;;;;;;4.64;80.27;100938.89;1731124;82;21069;-79
2021/12/16 13:16:21;;;;;;;31.55;20.23;;;;;;;4.69;80.47;100934.29;1732490;82;21056;-79
2021/12/16 13:27:05;;;;;;;29.57;19.52;;;;;;;4.72;80.69;100929.09;1722507;83;21837;-78
2021/12/16 13:32:15;;;;;;;36.45;21.40;;;;;;;4.69;80.78;100932.45;1724002;83;21029;-78
2021/12/16 13:34:58;;;;;;;33.58;21.25;;;;;;;4.68;80.83;100934.80;1715787;83;21502;-78
2021/12/16 13:37:36;;;;;;;36.10;21.65;;;;;;;4.69;80.97;100944.88;1708204;83;21049;-79
2021/12/16 13:40:28;;;;;;;33.05;19.82;;;;;;;4.68;81.00;100946.71;1755955;81;21261;-79
2021/12/16 13:42:59;;;;;;;;;;;;;;;4.67;81.09;100949.55;1729488;83;20962;-80
2021/12/16 13:45:57;;;;;;;37.48;21.77;;;;;;;4.65;81.19;100948.45;1715457;83;20198;-80
2021/12/16 13:49:01;;;;;;;37.17;22.27;;;;;;;4.61;81.35;100950.41;1736077;81;21077;-80
2021/12/16 14:01:09;;;;;;;42.10;23.87;;;;;;;4.54;81.98;100929.27;1736105;81;21031;-79
2021/12/16 14:03:10;;;;;;;34.73;20.15;;;;;;;4.53;82.06;100929.45;1752394;81;21029;-78
2021/12/16 14:05:50;;;;;;;37.45;21.85;;;;;;;4.55;82.17;100930.06;1753647;81;21031;-81
2021/12/16 14:08:14;;;;;;;39.15;23.02;;;;;;;4.56;82.21;100929.03;1751321;81;21143;-80
2021/12/16 14:10:53;;;;;;;42.85;23.65;;;;;;;4.56;82.27;100933.00;1702768;83;21023;-80
2021/12/16 14:16:35;;;;;;;43.28;24.25;;;;;;;4.53;82.51;100940.03;1706286;84;21068;-80
2021/12/16 14:25:14;;;;;;;44.40;24.87;;;;;;;4.52;82.78;100938.42;1714921;82;21646;-80
2021/12/16 14:39:43;;;;;;;43.30;26.00;;;;;;;4.55;83.25;100944.10;1731114;81;21102;-78